Arlington, TX (76019)

12:41 PM CST on December 19, 2014 (GMT -0600)
Fielder Park Neighborhood | Change Station
CLOSE
Current Station
Personal Weather Station
Location: Arlington, TX
Elevation: 669 ft
Nearby Weather Stations

Elev 669 ft 32.72 °N, 97.14 °W | Updated 8 seconds ago

Overcast
Overcast
46.8 °F
Feels Like 45 °F
N
4.0
Wind Variable Wind from NNE
Gusts 6.0 mph

Today
High -- | Low -- °F
--% Chance of Precip.
Yesterday
High -- | Low -- °F
Precip. -- in
7:25 AM 5:25 PM
Waning Crescent, 7% visible
Pressure 30.19 in
Visibility 5.0 miles
Clouds Overcast 500 ft
Windchill 45 °F
Dew Point 44 °F
Humidity 90%
Rainfall 0.05 in
Snow Depth Not available.
UV 0.8 out of 12
Pollen 8.00 out of 12
Air Quality Not available.
Flu Activity Not available.
METAR KGPM 191750Z 36010KT 5SM BR OVC005 08/08 A3019

More Conditions Fewer Conditions

Pressure 30.19 in
Visibility 5.0 miles
Clouds Overcast 500 ft
Windchill 45 °F
Dew Point 44 °F
Humidity 90%
Rainfall 0.05 in
Snow Depth Not available.
UV 0.8 out of 12
Pollen 8.00 out of 12
Air Quality Not available.
Flu Activity Not available.
METAR KGPM 191750Z 36010KT 5SM BR OVC005 08/08 A3019

More Conditions Fewer Conditions

Nowcast | as of 12:26 PM CST on December 19, 2014

Areas of drizzle and patchy fog along with mostly cloudy skies will continue through the mid afternoon hours. Temperatures through the afternoon hours will slowly climb into the mid to upper 40s with a few low 50s possible across central Texas.

×

10-Day Weather Forecast

Almanac

Astronomy

Dec. 19, 2014 Rise Set
Actual Time
Civil Twilight
Nautical Twilight
Astronomical Twilight
Moon
Length of Visible Light
Length of Day
Tomorrow will be .
, % of the Moon is Illuminated

Today's Extremes

State Highs State Lows

Community

WunderPhotos

Upload Photos

1,779,021 photos uploaded!

WunderBlogs® & News

Nearby

Air Quality

  Air Quality AQ Index Pollutant
Not available.

Snow Depth

Station Depth Elevation

Earthquake Activity

City Distance Mag. Time & Date
Minimum magnitude displayed is 2.5.

Coastal Water Temperatures

Place Temperature

Nearby Weather Stations